sensor_id;sensor_type;location;lat;lon;timestamp;P1;durP1;ratioP1;P2;durP2;ratioP2
71298;SDS011;59083;47.974;21.722;2022-09-28T00:01:17;28.35;;;16.15;;
71298;SDS011;59083;47.974;21.722;2022-09-28T00:04:20;30.77;;;17.45;;
71298;SDS011;59083;47.974;21.722;2022-09-28T00:07:21;29.42;;;16.08;;
71298;SDS011;59083;47.974;21.722;2022-09-28T00:10:23;31.77;;;17.07;;
71298;SDS011;59083;47.974;21.722;2022-09-28T00:13:24;31.10;;;17.02;;
71298;SDS011;59083;47.974;21.722;2022-09-28T00:16:26;33.10;;;17.65;;
71298;SDS011;59083;47.974;21.722;2022-09-28T00:19:29;32.10;;;17.17;;
71298;SDS011;59083;47.974;21.722;2022-09-28T00:22:30;32.78;;;17.35;;
71298;SDS011;59083;47.974;21.722;2022-09-28T00:25:31;32.10;;;17.33;;
71298;SDS011;59083;47.974;21.722;2022-09-28T00:28:33;36.53;;;17.45;;
71298;SDS011;59083;47.974;21.722;2022-09-28T00:31:34;33.15;;;17.77;;
71298;SDS011;59083;47.974;21.722;2022-09-28T00:34:36;34.25;;;18.25;;
71298;SDS011;59083;47.974;21.722;2022-09-28T00:37:40;36.40;;;18.35;;
71298;SDS011;59083;47.974;21.722;2022-09-28T00:40:41;36.83;;;18.17;;
71298;SDS011;59083;47.974;21.722;2022-09-28T00:43:42;32.83;;;17.65;;
71298;SDS011;59083;47.974;21.722;2022-09-28T00:46:44;37.28;;;17.90;;
71298;SDS011;59083;47.974;21.722;2022-09-28T00:56:09;37.20;;;18.37;;
71298;SDS011;59083;47.974;21.722;2022-09-28T00:59:14;38.03;;;18.77;;
71298;SDS011;59083;47.974;21.722;2022-09-28T01:02:15;37.45;;;19.15;;
71298;SDS011;59083;47.974;21.722;2022-09-28T01:05:17;40.67;;;19.83;;
71298;SDS011;59083;47.974;21.722;2022-09-28T01:08:20;38.03;;;19.58;;
71298;SDS011;59083;47.974;21.722;2022-09-28T01:11:24;39.63;;;18.70;;
71298;SDS011;59083;47.974;21.722;2022-09-28T01:14:27;39.25;;;18.15;;
71298;SDS011;59083;47.974;21.722;2022-09-28T01:17:43;37.40;;;17.95;;
71298;SDS011;59083;47.974;21.722;2022-09-28T01:21:17;36.70;;;17.33;;
71298;SDS011;59083;47.974;21.722;2022-09-28T01:27:56;34.27;;;16.90;;
71298;SDS011;59083;47.974;21.722;2022-09-28T01:34:13;30.52;;;15.48;;
71298;SDS011;59083;47.974;21.722;2022-09-28T01:37:19;29.60;;;15.15;;
71298;SDS011;59083;47.974;21.722;2022-09-28T01:40:25;28.55;;;14.35;;
71298;SDS011;59083;47.974;21.722;2022-09-28T01:43:29;27.10;;;13.80;;
71298;SDS011;59083;47.974;21.722;2022-09-28T01:46:38;26.30;;;14.00;;
71298;SDS011;59083;47.974;21.722;2022-09-28T01:49:47;32.03;;;14.18;;
71298;SDS011;59083;47.974;21.722;2022-09-28T01:53:05;26.52;;;13.68;;
71298;SDS011;59083;47.974;21.722;2022-09-28T01:56:14;25.75;;;12.63;;
71298;SDS011;59083;47.974;21.722;2022-09-28T01:59:25;21.63;;;11.87;;
71298;SDS011;59083;47.974;21.722;2022-09-28T02:02:31;20.15;;;11.18;;
71298;SDS011;59083;47.974;21.722;2022-09-28T02:05:38;19.73;;;10.25;;
71298;SDS011;59083;47.974;21.722;2022-09-28T02:08:51;19.20;;;9.98;;
71298;SDS011;59083;47.974;21.722;2022-09-28T02:11:58;18.70;;;10.60;;
71298;SDS011;59083;47.974;21.722;2022-09-28T02:15:09;18.03;;;9.83;;
71298;SDS011;59083;47.974;21.722;2022-09-28T02:18:18;20.27;;;10.38;;
71298;SDS011;59083;47.974;21.722;2022-09-28T02:21:25;19.52;;;10.13;;
71298;SDS011;59083;47.974;21.722;2022-09-28T02:28:31;18.52;;;9.73;;
71298;SDS011;59083;47.974;21.722;2022-09-28T02:31:32;17.10;;;8.50;;
71298;SDS011;59083;47.974;21.722;2022-09-28T02:34:34;13.75;;;6.57;;
71298;SDS011;59083;47.974;21.722;2022-09-28T02:37:36;11.73;;;5.97;;
71298;SDS011;59083;47.974;21.722;2022-09-28T02:40:38;11.50;;;5.40;;
71298;SDS011;59083;47.974;21.722;2022-09-28T02:50:33;8.15;;;3.83;;
71298;SDS011;59083;47.974;21.722;2022-09-28T03:00:43;7.32;;;3.22;;
71298;SDS011;59083;47.974;21.722;2022-09-28T03:07:24;6.75;;;3.20;;
71298;SDS011;59083;47.974;21.722;2022-09-28T03:13:41;10.75;;;4.80;;
71298;SDS011;59083;47.974;21.722;2022-09-28T03:16:43;10.00;;;4.35;;
71298;SDS011;59083;47.974;21.722;2022-09-28T03:19:45;10.93;;;4.10;;
71298;SDS011;59083;47.974;21.722;2022-09-28T03:22:47;9.57;;;3.62;;
71298;SDS011;59083;47.974;21.722;2022-09-28T03:25:48;7.85;;;3.60;;
71298;SDS011;59083;47.974;21.722;2022-09-28T03:28:49;7.80;;;3.28;;
71298;SDS011;59083;47.974;21.722;2022-09-28T03:31:51;7.05;;;3.30;;
71298;SDS011;59083;47.974;21.722;2022-09-28T03:34:53;7.30;;;3.57;;
71298;SDS011;59083;47.974;21.722;2022-09-28T03:37:54;9.07;;;3.33;;
71298;SDS011;59083;47.974;21.722;2022-09-28T03:40:58;9.90;;;3.70;;
71298;SDS011;59083;47.974;21.722;2022-09-28T03:44:00;8.95;;;4.03;;
71298;SDS011;59083;47.974;21.722;2022-09-28T03:47:02;7.45;;;3.60;;
71298;SDS011;59083;47.974;21.722;2022-09-28T03:50:03;7.70;;;3.90;;
71298;SDS011;59083;47.974;21.722;2022-09-28T03:53:05;15.23;;;7.97;;
71298;SDS011;59083;47.974;21.722;2022-09-28T03:56:08;15.52;;;8.27;;
71298;SDS011;59083;47.974;21.722;2022-09-28T03:59:12;18.65;;;10.68;;
71298;SDS011;59083;47.974;21.722;2022-09-28T04:02:14;12.45;;;5.43;;
71298;SDS011;59083;47.974;21.722;2022-09-28T04:05:16;9.87;;;3.87;;
71298;SDS011;59083;47.974;21.722;2022-09-28T04:08:18;7.87;;;3.97;;
71298;SDS011;59083;47.974;21.722;2022-09-28T04:11:19;8.88;;;4.12;;
71298;SDS011;59083;47.974;21.722;2022-09-28T04:14:21;10.50;;;4.28;;
71298;SDS011;59083;47.974;21.722;2022-09-28T04:17:22;8.35;;;4.07;;
71298;SDS011;59083;47.974;21.722;2022-09-28T04:20:23;10.07;;;4.20;;
71298;SDS011;59083;47.974;21.722;2022-09-28T04:23:29;7.57;;;3.72;;
71298;SDS011;59083;47.974;21.722;2022-09-28T04:26:30;9.50;;;3.80;;
71298;SDS011;59083;47.974;21.722;2022-09-28T04:29:32;9.90;;;3.87;;
71298;SDS011;59083;47.974;21.722;2022-09-28T04:32:33;21.00;;;11.38;;
71298;SDS011;59083;47.974;21.722;2022-09-28T04:35:35;23.20;;;10.63;;
71298;SDS011;59083;47.974;21.722;2022-09-28T04:38:37;10.00;;;5.93;;
71298;SDS011;59083;47.974;21.722;2022-09-28T04:41:39;11.85;;;5.20;;
71298;SDS011;59083;47.974;21.722;2022-09-28T04:44:41;15.55;;;5.90;;
71298;SDS011;59083;47.974;21.722;2022-09-28T04:47:42;12.68;;;6.90;;
71298;SDS011;59083;47.974;21.722;2022-09-28T04:50:51;11.07;;;6.33;;
71298;SDS011;59083;47.974;21.722;2022-09-28T04:53:53;11.60;;;5.28;;
71298;SDS011;59083;47.974;21.722;2022-09-28T04:56:55;11.27;;;5.40;;
71298;SDS011;59083;47.974;21.722;2022-09-28T04:59:57;11.63;;;5.05;;
71298;SDS011;59083;47.974;21.722;2022-09-28T05:02:58;9.80;;;5.28;;
71298;SDS011;59083;47.974;21.722;2022-09-28T05:06:01;9.93;;;4.87;;
71298;SDS011;59083;47.974;21.722;2022-09-28T05:09:02;9.68;;;5.10;;
71298;SDS011;59083;47.974;21.722;2022-09-28T05:12:04;11.00;;;4.82;;
71298;SDS011;59083;47.974;21.722;2022-09-28T05:15:05;9.02;;;4.80;;
71298;SDS011;59083;47.974;21.722;2022-09-28T05:18:07;11.00;;;5.03;;
71298;SDS011;59083;47.974;21.722;2022-09-28T05:21:13;12.47;;;5.03;;
71298;SDS011;59083;47.974;21.722;2022-09-28T05:24:15;9.75;;;4.95;;
71298;SDS011;59083;47.974;21.722;2022-09-28T05:27:17;16.35;;;5.10;;
71298;SDS011;59083;47.974;21.722;2022-09-28T05:30:19;11.10;;;4.90;;
71298;SDS011;59083;47.974;21.722;2022-09-28T05:33:23;11.43;;;5.78;;
71298;SDS011;59083;47.974;21.722;2022-09-28T05:36:26;14.90;;;5.50;;
71298;SDS011;59083;47.974;21.722;2022-09-28T05:39:27;10.18;;;4.80;;
71298;SDS011;59083;47.974;21.722;2022-09-28T05:42:29;12.80;;;5.60;;
71298;SDS011;59083;47.974;21.722;2022-09-28T05:45:31;11.70;;;5.00;;
71298;SDS011;59083;47.974;21.722;2022-09-28T05:48:33;13.98;;;5.47;;
71298;SDS011;59083;47.974;21.722;2022-09-28T05:51:34;11.73;;;5.60;;
71298;SDS011;59083;47.974;21.722;2022-09-28T05:54:35;15.10;;;7.37;;
71298;SDS011;59083;47.974;21.722;2022-09-28T05:57:36;11.98;;;5.87;;
71298;SDS011;59083;47.974;21.722;2022-09-28T06:00:38;10.85;;;5.80;;
71298;SDS011;59083;47.974;21.722;2022-09-28T06:03:40;13.15;;;5.80;;
71298;SDS011;59083;47.974;21.722;2022-09-28T06:06:41;16.23;;;6.50;;
71298;SDS011;59083;47.974;21.722;2022-09-28T06:09:43;12.63;;;6.80;;
71298;SDS011;59083;47.974;21.722;2022-09-28T06:12:44;11.27;;;5.93;;
71298;SDS011;59083;47.974;21.722;2022-09-28T06:15:48;11.95;;;7.00;;
71298;SDS011;59083;47.974;21.722;2022-09-28T06:18:49;17.33;;;6.53;;
71298;SDS011;59083;47.974;21.722;2022-09-28T06:21:52;19.17;;;10.20;;
71298;SDS011;59083;47.974;21.722;2022-09-28T06:24:53;15.45;;;7.80;;
71298;SDS011;59083;47.974;21.722;2022-09-28T06:27:55;9.77;;;5.43;;
71298;SDS011;59083;47.974;21.722;2022-09-28T06:31:00;11.23;;;6.07;;
71298;SDS011;59083;47.974;21.722;2022-09-28T06:34:02;13.07;;;6.53;;
71298;SDS011;59083;47.974;21.722;2022-09-28T06:37:03;15.77;;;8.10;;
71298;SDS011;59083;47.974;21.722;2022-09-28T06:40:05;20.98;;;8.82;;
71298;SDS011;59083;47.974;21.722;2022-09-28T06:43:08;13.95;;;7.25;;
71298;SDS011;59083;47.974;21.722;2022-09-28T06:46:16;11.02;;;6.35;;
71298;SDS011;59083;47.974;21.722;2022-09-28T06:49:18;12.60;;;5.68;;
71298;SDS011;59083;47.974;21.722;2022-09-28T06:52:21;8.93;;;5.13;;
71298;SDS011;59083;47.974;21.722;2022-09-28T06:55:24;27.60;;;11.12;;
71298;SDS011;59083;47.974;21.722;2022-09-28T06:58:26;13.07;;;6.15;;
71298;SDS011;59083;47.974;21.722;2022-09-28T07:01:30;10.63;;;5.65;;
71298;SDS011;59083;47.974;21.722;2022-09-28T07:04:31;9.40;;;5.40;;
71298;SDS011;59083;47.974;21.722;2022-09-28T07:07:33;9.40;;;5.10;;
71298;SDS011;59083;47.974;21.722;2022-09-28T07:10:39;11.73;;;5.20;;
71298;SDS011;59083;47.974;21.722;2022-09-28T07:13:41;9.38;;;4.70;;
71298;SDS011;59083;47.974;21.722;2022-09-28T07:16:43;9.85;;;5.45;;
71298;SDS011;59083;47.974;21.722;2022-09-28T07:19:44;12.32;;;6.37;;
71298;SDS011;59083;47.974;21.722;2022-09-28T07:22:45;9.03;;;4.63;;
71298;SDS011;59083;47.974;21.722;2022-09-28T07:25:48;9.95;;;4.93;;
71298;SDS011;59083;47.974;21.722;2022-09-28T07:28:53;8.20;;;4.47;;
71298;SDS011;59083;47.974;21.722;2022-09-28T07:31:56;7.22;;;4.00;;
71298;SDS011;59083;47.974;21.722;2022-09-28T07:34:59;10.38;;;4.60;;
71298;SDS011;59083;47.974;21.722;2022-09-28T07:38:03;9.43;;;3.90;;
71298;SDS011;59083;47.974;21.722;2022-09-28T07:41:06;7.55;;;3.90;;
71298;SDS011;59083;47.974;21.722;2022-09-28T07:44:14;9.27;;;4.25;;
71298;SDS011;59083;47.974;21.722;2022-09-28T07:47:18;10.52;;;3.90;;
71298;SDS011;59083;47.974;21.722;2022-09-28T07:50:29;8.02;;;3.75;;
71298;SDS011;59083;47.974;21.722;2022-09-28T07:53:30;8.47;;;3.57;;
71298;SDS011;59083;47.974;21.722;2022-09-28T07:56:32;13.88;;;5.00;;
71298;SDS011;59083;47.974;21.722;2022-09-28T07:59:35;7.55;;;4.12;;
71298;SDS011;59083;47.974;21.722;2022-09-28T08:02:37;6.70;;;3.58;;
71298;SDS011;59083;47.974;21.722;2022-09-28T08:05:39;9.95;;;3.80;;
71298;SDS011;59083;47.974;21.722;2022-09-28T08:08:42;6.63;;;3.20;;
71298;SDS011;59083;47.974;21.722;2022-09-28T08:11:44;6.47;;;3.20;;
71298;SDS011;59083;47.974;21.722;2022-09-28T08:14:46;7.37;;;3.40;;
71298;SDS011;59083;47.974;21.722;2022-09-28T08:17:48;6.87;;;3.20;;
71298;SDS011;59083;47.974;21.722;2022-09-28T08:20:51;8.30;;;2.75;;
71298;SDS011;59083;47.974;21.722;2022-09-28T08:24:12;5.63;;;2.80;;
71298;SDS011;59083;47.974;21.722;2022-09-28T08:27:15;10.85;;;3.40;;
71298;SDS011;59083;47.974;21.722;2022-09-28T08:30:17;10.68;;;5.35;;
71298;SDS011;59083;47.974;21.722;2022-09-28T08:33:20;5.47;;;2.40;;
71298;SDS011;59083;47.974;21.722;2022-09-28T08:36:33;4.97;;;2.03;;
71298;SDS011;59083;47.974;21.722;2022-09-28T08:39:36;5.13;;;2.20;;
71298;SDS011;59083;47.974;21.722;2022-09-28T08:42:40;8.18;;;2.30;;
71298;SDS011;59083;47.974;21.722;2022-09-28T08:45:43;8.98;;;2.20;;
71298;SDS011;59083;47.974;21.722;2022-09-28T08:48:50;5.65;;;1.90;;
71298;SDS011;59083;47.974;21.722;2022-09-28T08:52:00;4.30;;;1.60;;
71298;SDS011;59083;47.974;21.722;2022-09-28T08:58:32;6.87;;;2.50;;
71298;SDS011;59083;47.974;21.722;2022-09-28T09:01:38;5.03;;;1.70;;
71298;SDS011;59083;47.974;21.722;2022-09-28T09:04:48;5.60;;;2.20;;
71298;SDS011;59083;47.974;21.722;2022-09-28T09:07:55;4.20;;;1.70;;
71298;SDS011;59083;47.974;21.722;2022-09-28T09:20:56;2.80;;;1.25;;
71298;SDS011;59083;47.974;21.722;2022-09-28T09:24:02;2.92;;;1.27;;
71298;SDS011;59083;47.974;21.722;2022-09-28T09:51:52;6.97;;;2.10;;
71298;SDS011;59083;47.974;21.722;2022-09-28T09:58:12;4.60;;;1.67;;
71298;SDS011;59083;47.974;21.722;2022-09-28T10:01:21;2.53;;;1.10;;
71298;SDS011;59083;47.974;21.722;2022-09-28T10:04:35;4.78;;;1.40;;
71298;SDS011;59083;47.974;21.722;2022-09-28T10:14:32;3.55;;;1.40;;
71298;SDS011;59083;47.974;21.722;2022-09-28T10:17:36;4.20;;;1.20;;
71298;SDS011;59083;47.974;21.722;2022-09-28T10:20:45;1.80;;;0.93;;
71298;SDS011;59083;47.974;21.722;2022-09-28T10:23:49;2.45;;;1.30;;
71298;SDS011;59083;47.974;21.722;2022-09-28T10:26:56;6.00;;;1.80;;
71298;SDS011;59083;47.974;21.722;2022-09-28T10:36:43;2.25;;;1.20;;
71298;SDS011;59083;47.974;21.722;2022-09-28T10:39:51;2.58;;;0.95;;
71298;SDS011;59083;47.974;21.722;2022-09-28T10:43:02;10.32;;;3.53;;
71298;SDS011;59083;47.974;21.722;2022-09-28T10:46:12;3.83;;;1.20;;
71298;SDS011;59083;47.974;21.722;2022-09-28T10:49:17;2.03;;;1.10;;
71298;SDS011;59083;47.974;21.722;2022-09-28T10:55:34;2.87;;;1.10;;
71298;SDS011;59083;47.974;21.722;2022-09-28T10:58:37;2.47;;;0.90;;
71298;SDS011;59083;47.974;21.722;2022-09-28T11:01:43;1.90;;;1.00;;
71298;SDS011;59083;47.974;21.722;2022-09-28T11:04:48;6.40;;;1.97;;
71298;SDS011;59083;47.974;21.722;2022-09-28T11:07:53;8.35;;;2.95;;
71298;SDS011;59083;47.974;21.722;2022-09-28T11:11:00;3.97;;;1.45;;
71298;SDS011;59083;47.974;21.722;2022-09-28T11:14:04;4.20;;;1.10;;
71298;SDS011;59083;47.974;21.722;2022-09-28T11:20:29;2.30;;;1.00;;
71298;SDS011;59083;47.974;21.722;2022-09-28T11:23:34;0.82;;;0.70;;
71298;SDS011;59083;47.974;21.722;2022-09-28T11:26:40;5.07;;;1.92;;
71298;SDS011;59083;47.974;21.722;2022-09-28T11:29:44;1.83;;;1.00;;
71298;SDS011;59083;47.974;21.722;2022-09-28T11:33:10;1.40;;;0.70;;
71298;SDS011;59083;47.974;21.722;2022-09-28T11:50:21;1.92;;;1.00;;
71298;SDS011;59083;47.974;21.722;2022-09-28T11:53:30;1.13;;;0.80;;
71298;SDS011;59083;47.974;21.722;2022-09-28T11:56:43;2.28;;;1.05;;
71298;SDS011;59083;47.974;21.722;2022-09-28T12:03:04;7.85;;;4.10;;
71298;SDS011;59083;47.974;21.722;2022-09-28T12:06:15;13.43;;;8.48;;
71298;SDS011;59083;47.974;21.722;2022-09-28T12:09:30;3.47;;;1.50;;
71298;SDS011;59083;47.974;21.722;2022-09-28T12:12:44;7.62;;;3.30;;
71298;SDS011;59083;47.974;21.722;2022-09-28T12:16:01;2.62;;;1.20;;
71298;SDS011;59083;47.974;21.722;2022-09-28T12:19:10;2.30;;;0.98;;
71298;SDS011;59083;47.974;21.722;2022-09-28T12:22:17;4.40;;;1.20;;
71298;SDS011;59083;47.974;21.722;2022-09-28T12:25:24;2.27;;;1.00;;
71298;SDS011;59083;47.974;21.722;2022-09-28T12:28:33;2.40;;;0.93;;
71298;SDS011;59083;47.974;21.722;2022-09-28T12:32:00;3.62;;;1.33;;
71298;SDS011;59083;47.974;21.722;2022-09-28T12:35:13;2.45;;;0.90;;
71298;SDS011;59083;47.974;21.722;2022-09-28T12:45:06;1.30;;;0.80;;
71298;SDS011;59083;47.974;21.722;2022-09-28T12:52:11;3.53;;;1.00;;
71298;SDS011;59083;47.974;21.722;2022-09-28T12:55:18;4.75;;;1.00;;
71298;SDS011;59083;47.974;21.722;2022-09-28T13:05:12;2.60;;;0.90;;
71298;SDS011;59083;47.974;21.722;2022-09-28T13:24:36;1.40;;;0.70;;
71298;SDS011;59083;47.974;21.722;2022-09-28T13:27:47;1.40;;;0.70;;
71298;SDS011;59083;47.974;21.722;2022-09-28T13:30:53;3.37;;;0.80;;
71298;SDS011;59083;47.974;21.722;2022-09-28T13:33:57;2.75;;;0.90;;
71298;SDS011;59083;47.974;21.722;2022-09-28T13:40:19;2.75;;;1.00;;
71298;SDS011;59083;47.974;21.722;2022-09-28T14:00:29;5.07;;;1.10;;
71298;SDS011;59083;47.974;21.722;2022-09-28T14:03:54;6.23;;;1.00;;
71298;SDS011;59083;47.974;21.722;2022-09-28T14:07:10;3.15;;;1.20;;
71298;SDS011;59083;47.974;21.722;2022-09-28T14:16:45;6.07;;;1.30;;
71298;SDS011;59083;47.974;21.722;2022-09-28T14:19:50;2.47;;;0.90;;
71298;SDS011;59083;47.974;21.722;2022-09-28T14:22:57;2.33;;;1.25;;
71298;SDS011;59083;47.974;21.722;2022-09-28T14:26:16;1.75;;;0.90;;
71298;SDS011;59083;47.974;21.722;2022-09-28T14:29:29;1.05;;;0.80;;
71298;SDS011;59083;47.974;21.722;2022-09-28T14:32:33;4.15;;;1.05;;
71298;SDS011;59083;47.974;21.722;2022-09-28T14:35:40;2.63;;;1.10;;
71298;SDS011;59083;47.974;21.722;2022-09-28T14:38:44;1.15;;;0.90;;
71298;SDS011;59083;47.974;21.722;2022-09-28T14:42:08;2.12;;;0.75;;
71298;SDS011;59083;47.974;21.722;2022-09-28T14:48:18;1.95;;;0.90;;
71298;SDS011;59083;47.974;21.722;2022-09-28T14:58:04;2.12;;;1.05;;
71298;SDS011;59083;47.974;21.722;2022-09-28T15:01:17;2.30;;;1.00;;
71298;SDS011;59083;47.974;21.722;2022-09-28T15:04:21;3.53;;;1.15;;
71298;SDS011;59083;47.974;21.722;2022-09-28T15:07:28;2.57;;;1.07;;
71298;SDS011;59083;47.974;21.722;2022-09-28T15:10:45;2.62;;;0.85;;
71298;SDS011;59083;47.974;21.722;2022-09-28T15:13:49;4.00;;;1.40;;
71298;SDS011;59083;47.974;21.722;2022-09-28T15:16:53;3.12;;;1.20;;
71298;SDS011;59083;47.974;21.722;2022-09-28T15:26:28;4.65;;;1.33;;
71298;SDS011;59083;47.974;21.722;2022-09-28T15:29:31;5.78;;;1.80;;
71298;SDS011;59083;47.974;21.722;2022-09-28T15:32:33;7.95;;;3.78;;
71298;SDS011;59083;47.974;21.722;2022-09-28T15:35:35;7.22;;;2.00;;
71298;SDS011;59083;47.974;21.722;2022-09-28T15:38:39;3.37;;;1.40;;
71298;SDS011;59083;47.974;21.722;2022-09-28T15:41:42;6.05;;;1.30;;
71298;SDS011;59083;47.974;21.722;2022-09-28T15:45:19;4.25;;;1.50;;
71298;SDS011;59083;47.974;21.722;2022-09-28T15:51:59;6.87;;;2.95;;
71298;SDS011;59083;47.974;21.722;2022-09-28T15:58:24;7.20;;;2.42;;
71298;SDS011;59083;47.974;21.722;2022-09-28T16:01:30;6.87;;;2.30;;
71298;SDS011;59083;47.974;21.722;2022-09-28T16:04:49;7.00;;;1.98;;
71298;SDS011;59083;47.974;21.722;2022-09-28T16:07:51;5.85;;;2.00;;
71298;SDS011;59083;47.974;21.722;2022-09-28T16:11:01;5.80;;;2.17;;
71298;SDS011;59083;47.974;21.722;2022-09-28T16:14:25;6.97;;;2.50;;
71298;SDS011;59083;47.974;21.722;2022-09-28T16:17:28;8.35;;;2.45;;
71298;SDS011;59083;47.974;21.722;2022-09-28T16:20:33;4.82;;;2.12;;
71298;SDS011;59083;47.974;21.722;2022-09-28T16:23:37;6.55;;;2.20;;
71298;SDS011;59083;47.974;21.722;2022-09-28T16:26:41;5.43;;;2.30;;
71298;SDS011;59083;47.974;21.722;2022-09-28T16:29:43;7.00;;;2.40;;
71298;SDS011;59083;47.974;21.722;2022-09-28T16:33:04;6.45;;;2.30;;
71298;SDS011;59083;47.974;21.722;2022-09-28T16:36:27;8.50;;;2.42;;
71298;SDS011;59083;47.974;21.722;2022-09-28T16:39:38;5.45;;;2.50;;
71298;SDS011;59083;47.974;21.722;2022-09-28T16:42:40;7.67;;;2.67;;
71298;SDS011;59083;47.974;21.722;2022-09-28T16:45:45;7.32;;;2.85;;
71298;SDS011;59083;47.974;21.722;2022-09-28T16:48:47;11.73;;;4.20;;
71298;SDS011;59083;47.974;21.722;2022-09-28T16:51:50;7.50;;;3.10;;
71298;SDS011;59083;47.974;21.722;2022-09-28T16:54:51;9.02;;;3.30;;
71298;SDS011;59083;47.974;21.722;2022-09-28T16:58:11;10.10;;;3.33;;
71298;SDS011;59083;47.974;21.722;2022-09-28T17:01:13;8.15;;;3.20;;
71298;SDS011;59083;47.974;21.722;2022-09-28T17:04:14;9.50;;;3.92;;
71298;SDS011;59083;47.974;21.722;2022-09-28T17:07:15;13.07;;;4.10;;
71298;SDS011;59083;47.974;21.722;2022-09-28T17:10:24;8.48;;;3.85;;
71298;SDS011;59083;47.974;21.722;2022-09-28T17:13:32;9.20;;;3.93;;
71298;SDS011;59083;47.974;21.722;2022-09-28T17:16:33;14.87;;;4.65;;
71298;SDS011;59083;47.974;21.722;2022-09-28T17:19:35;13.00;;;5.80;;
71298;SDS011;59083;47.974;21.722;2022-09-28T17:22:36;21.60;;;8.40;;
71298;SDS011;59083;47.974;21.722;2022-09-28T17:25:39;16.83;;;6.65;;
71298;SDS011;59083;47.974;21.722;2022-09-28T17:28:41;16.10;;;6.73;;
71298;SDS011;59083;47.974;21.722;2022-09-28T17:31:43;18.23;;;6.10;;
71298;SDS011;59083;47.974;21.722;2022-09-28T17:37:36;14.87;;;6.37;;
71298;SDS011;59083;47.974;21.722;2022-09-28T17:40:37;15.43;;;6.83;;
71298;SDS011;59083;47.974;21.722;2022-09-28T17:43:39;15.48;;;7.37;;
71298;SDS011;59083;47.974;21.722;2022-09-28T17:46:41;15.25;;;7.80;;
71298;SDS011;59083;47.974;21.722;2022-09-28T17:49:49;16.85;;;7.22;;
71298;SDS011;59083;47.974;21.722;2022-09-28T17:52:51;14.95;;;6.95;;
71298;SDS011;59083;47.974;21.722;2022-09-28T17:55:53;13.17;;;6.27;;
71298;SDS011;59083;47.974;21.722;2022-09-28T17:58:55;10.70;;;5.45;;
71298;SDS011;59083;47.974;21.722;2022-09-28T18:01:58;11.50;;;5.62;;
71298;SDS011;59083;47.974;21.722;2022-09-28T18:04:59;11.98;;;5.45;;
71298;SDS011;59083;47.974;21.722;2022-09-28T18:08:00;15.00;;;5.70;;
71298;SDS011;59083;47.974;21.722;2022-09-28T18:11:02;11.80;;;5.60;;
71298;SDS011;59083;47.974;21.722;2022-09-28T18:14:03;13.48;;;6.18;;
71298;SDS011;59083;47.974;21.722;2022-09-28T18:17:04;12.73;;;5.10;;
71298;SDS011;59083;47.974;21.722;2022-09-28T18:20:06;13.32;;;4.85;;
71298;SDS011;59083;47.974;21.722;2022-09-28T18:23:08;12.63;;;6.25;;
71298;SDS011;59083;47.974;21.722;2022-09-28T18:26:13;13.43;;;6.90;;
71298;SDS011;59083;47.974;21.722;2022-09-28T18:29:15;13.93;;;5.22;;
71298;SDS011;59083;47.974;21.722;2022-09-28T18:32:17;14.68;;;5.68;;
71298;SDS011;59083;47.974;21.722;2022-09-28T18:35:19;15.05;;;5.80;;
71298;SDS011;59083;47.974;21.722;2022-09-28T18:38:20;11.77;;;6.10;;
71298;SDS011;59083;47.974;21.722;2022-09-28T18:41:21;13.77;;;6.50;;
71298;SDS011;59083;47.974;21.722;2022-09-28T18:44:22;14.82;;;6.32;;
71298;SDS011;59083;47.974;21.722;2022-09-28T18:47:24;13.43;;;6.22;;
71298;SDS011;59083;47.974;21.722;2022-09-28T18:50:27;15.95;;;7.00;;
71298;SDS011;59083;47.974;21.722;2022-09-28T18:53:29;15.38;;;7.05;;
71298;SDS011;59083;47.974;21.722;2022-09-28T18:56:33;15.67;;;7.37;;
71298;SDS011;59083;47.974;21.722;2022-09-28T18:59:37;15.15;;;7.55;;
71298;SDS011;59083;47.974;21.722;2022-09-28T19:02:38;17.05;;;8.10;;
71298;SDS011;59083;47.974;21.722;2022-09-28T19:05:40;18.95;;;9.05;;
71298;SDS011;59083;47.974;21.722;2022-09-28T19:08:42;16.92;;;8.43;;
71298;SDS011;59083;47.974;21.722;2022-09-28T19:11:44;16.77;;;8.87;;
71298;SDS011;59083;47.974;21.722;2022-09-28T19:14:45;18.05;;;9.45;;
71298;SDS011;59083;47.974;21.722;2022-09-28T19:17:47;19.55;;;9.48;;
71298;SDS011;59083;47.974;21.722;2022-09-28T19:20:48;17.65;;;9.07;;
71298;SDS011;59083;47.974;21.722;2022-09-28T19:23:50;21.05;;;8.75;;
71298;SDS011;59083;47.974;21.722;2022-09-28T19:26:53;15.63;;;8.17;;
71298;SDS011;59083;47.974;21.722;2022-09-28T19:29:54;15.93;;;7.80;;
71298;SDS011;59083;47.974;21.722;2022-09-28T19:32:55;19.80;;;8.02;;
71298;SDS011;59083;47.974;21.722;2022-09-28T19:35:57;15.35;;;7.55;;
71298;SDS011;59083;47.974;21.722;2022-09-28T19:39:03;19.10;;;7.57;;
71298;SDS011;59083;47.974;21.722;2022-09-28T19:42:07;15.43;;;6.97;;
71298;SDS011;59083;47.974;21.722;2022-09-28T19:45:08;14.20;;;7.18;;
71298;SDS011;59083;47.974;21.722;2022-09-28T19:48:10;15.25;;;6.82;;
71298;SDS011;59083;47.974;21.722;2022-09-28T19:51:11;14.55;;;6.93;;
71298;SDS011;59083;47.974;21.722;2022-09-28T19:54:12;15.00;;;6.97;;
71298;SDS011;59083;47.974;21.722;2022-09-28T19:57:13;12.93;;;6.70;;
71298;SDS011;59083;47.974;21.722;2022-09-28T20:00:15;17.23;;;6.95;;
71298;SDS011;59083;47.974;21.722;2022-09-28T20:03:17;12.75;;;5.85;;
71298;SDS011;59083;47.974;21.722;2022-09-28T20:06:21;11.52;;;5.60;;
71298;SDS011;59083;47.974;21.722;2022-09-28T20:09:24;12.45;;;5.53;;
71298;SDS011;59083;47.974;21.722;2022-09-28T20:12:25;11.10;;;5.43;;
71298;SDS011;59083;47.974;21.722;2022-09-28T20:15:26;11.27;;;4.87;;
71298;SDS011;59083;47.974;21.722;2022-09-28T20:18:30;9.95;;;5.03;;
71298;SDS011;59083;47.974;21.722;2022-09-28T20:21:32;9.82;;;4.90;;
71298;SDS011;59083;47.974;21.722;2022-09-28T20:24:33;9.23;;;4.72;;
71298;SDS011;59083;47.974;21.722;2022-09-28T20:27:35;9.93;;;5.00;;
71298;SDS011;59083;47.974;21.722;2022-09-28T20:30:38;11.57;;;4.70;;
71298;SDS011;59083;47.974;21.722;2022-09-28T20:33:41;10.10;;;4.55;;
71298;SDS011;59083;47.974;21.722;2022-09-28T20:36:42;9.57;;;4.50;;
71298;SDS011;59083;47.974;21.722;2022-09-28T20:39:44;8.27;;;4.35;;
71298;SDS011;59083;47.974;21.722;2022-09-28T20:42:45;8.50;;;4.20;;
71298;SDS011;59083;47.974;21.722;2022-09-28T20:45:46;9.55;;;3.72;;
71298;SDS011;59083;47.974;21.722;2022-09-28T20:48:50;8.50;;;4.00;;
71298;SDS011;59083;47.974;21.722;2022-09-28T20:51:52;9.93;;;4.03;;
71298;SDS011;59083;47.974;21.722;2022-09-28T20:54:53;8.18;;;3.65;;
71298;SDS011;59083;47.974;21.722;2022-09-28T20:57:54;8.33;;;3.40;;
71298;SDS011;59083;47.974;21.722;2022-09-28T21:01:05;8.15;;;3.47;;
71298;SDS011;59083;47.974;21.722;2022-09-28T21:04:11;9.93;;;4.12;;
71298;SDS011;59083;47.974;21.722;2022-09-28T21:07:12;11.85;;;4.07;;
71298;SDS011;59083;47.974;21.722;2022-09-28T21:10:13;9.70;;;3.60;;
71298;SDS011;59083;47.974;21.722;2022-09-28T21:13:15;10.33;;;3.93;;
71298;SDS011;59083;47.974;21.722;2022-09-28T21:16:17;10.55;;;3.90;;
71298;SDS011;59083;47.974;21.722;2022-09-28T21:19:18;7.97;;;3.80;;
71298;SDS011;59083;47.974;21.722;2022-09-28T21:22:20;10.10;;;3.55;;
71298;SDS011;59083;47.974;21.722;2022-09-28T21:25:21;7.90;;;3.47;;
71298;SDS011;59083;47.974;21.722;2022-09-28T21:28:23;8.07;;;3.60;;